createdAt,value
2019-04-23T00:00:27.755Z,42.51
2019-04-23T00:01:07.353Z,41.94
2019-04-23T00:01:48.812Z,41.84
2019-04-23T00:02:23.102Z,41.65
2019-04-23T00:03:18.558Z,41.55
2019-04-23T00:03:45.392Z,41.74
2019-04-23T00:04:23.006Z,41.74
2019-04-23T00:05:05.608Z,41.74
2019-04-23T00:06:06.512Z,41.84
2019-04-23T00:07:15.038Z,41.94
2019-04-23T00:08:41.366Z,41.74
2019-04-23T00:09:25.871Z,41.84
2019-04-23T00:10:03.255Z,42.13
2019-04-23T00:10:51.299Z,41.84
2019-04-23T00:11:25.270Z,42.03
2019-04-23T00:11:59.653Z,42.3
2019-04-23T00:13:29.106Z,42.2
2019-04-23T00:14:05.404Z,42.77
2019-04-23T00:14:54.571Z,42.49
2019-04-23T00:15:23.075Z,42.58
2019-04-23T00:16:24.688Z,42.58
2019-04-23T00:16:49.058Z,42.58
2019-04-23T00:18:12.008Z,42.41
2019-04-23T00:19:02.218Z,42.49
2019-04-23T00:19:30.788Z,42.4
2019-04-23T00:20:14.131Z,42.2
2019-04-23T00:20:56.803Z,42.58
2019-04-23T00:22:19.747Z,42.68
2019-04-23T00:22:59.728Z,42.68
2019-04-23T00:23:44.283Z,42.4
2019-04-23T00:24:27.872Z,42.58
2019-04-23T00:25:23.887Z,42.49
2019-04-23T00:25:48.912Z,42.49
2019-04-23T00:26:30.326Z,42.87
2019-04-23T00:27:15.289Z,42.97
2019-04-23T00:27:42.220Z,42.58
2019-04-23T00:29:11.574Z,42.49
2019-04-23T00:29:52.200Z,42.2
2019-04-23T00:30:26.241Z,42.58
2019-04-23T00:31:13.157Z,42.68
2019-04-23T00:31:49.362Z,42.68
2019-04-23T00:32:28.432Z,42.3
2019-04-23T00:33:11.638Z,42.58
2019-04-23T00:33:49.406Z,42.2
2019-04-23T00:34:32.962Z,42.77
2019-04-23T00:35:12.231Z,42.77
2019-04-23T00:37:18.219Z,42.4
2019-04-23T00:37:54.687Z,42.3
2019-04-23T00:38:44.609Z,42.2
2019-04-23T00:39:22.842Z,42.49
2019-04-23T00:40:02.344Z,42.4
2019-04-23T00:40:43.424Z,42.49
2019-04-23T00:41:24.378Z,42.68
2019-04-23T00:42:06.458Z,42.3
2019-04-23T00:43:25.803Z,42.68
2019-04-23T00:44:06.079Z,42.4
2019-04-23T00:45:32.361Z,42.68
2019-04-23T00:46:06.059Z,42.66
2019-04-23T00:46:46.392Z,42.66
2019-04-23T00:47:37.765Z,42.66
2019-04-23T00:48:19.450Z,42.56
2019-04-23T00:48:57.399Z,42.37
2019-04-23T00:49:39.561Z,42.47
2019-04-23T00:50:53.901Z,42.66
2019-04-23T00:51:36.146Z,42.76
2019-04-23T00:52:20.323Z,42.66
2019-04-23T00:52:57.171Z,43.14
2019-04-23T00:53:32.308Z,43.04
2019-04-23T00:54:17.325Z,42.76
2019-04-23T00:55:10.523Z,43.14
2019-04-23T00:55:42.300Z,42.76
2019-04-23T00:57:05.416Z,42.85
2019-04-23T01:01:26.225Z,42.94
2019-04-23T01:02:07.537Z,42.85
2019-04-23T01:02:58.781Z,43.14
2019-04-23T01:03:29.202Z,43.23
2019-04-23T01:04:11.652Z,42.66
2019-04-23T01:04:55.644Z,42.66
2019-04-23T01:05:35.016Z,43.14
2019-04-23T01:06:19.206Z,42.94
2019-04-23T01:06:57.873Z,42.56
2019-04-23T01:07:37.958Z,42.94
2019-04-23T01:08:29.458Z,43.23
2019-04-23T01:09:01.956Z,43.33
2019-04-23T01:09:45.409Z,43.33
2019-04-23T01:11:43.159Z,42.66
2019-04-23T01:12:31.030Z,43.04
2019-04-23T01:13:08.481Z,42.94
2019-04-23T01:13:48.703Z,43.14
2019-04-23T01:14:25.746Z,42.94
2019-04-23T01:15:09.785Z,43.52
2019-04-23T01:15:52.184Z,43.23
2019-04-23T01:16:28.150Z,43.14
2019-04-23T01:17:16.408Z,42.94
2019-04-23T01:17:52.915Z,43.23
2019-04-23T01:18:37.664Z,43.23
2019-04-23T01:19:06.383Z,43.52
2019-04-23T01:19:54.230Z,43.52
2019-04-23T01:20:36.396Z,43.04
2019-04-23T01:20:54.923Z,43.33
2019-04-23T01:21:34.996Z,43.52
2019-04-23T01:22:16.881Z,43.52
2019-04-23T01:22:59.032Z,43.79
2019-04-23T01:23:44.239Z,43.69
2019-04-23T01:24:23.579Z,43.62
2019-04-23T01:25:09.512Z,44.09
2019-04-23T01:25:52.124Z,44.17
2019-04-23T01:26:41.713Z,43.43
2019-04-23T01:28:07.457Z,43.43
2019-04-23T01:28:55.249Z,43.52
2019-04-23T01:29:35.435Z,43.43
2019-04-23T01:30:13.741Z,43.52
2019-04-23T01:30:53.895Z,43.14
2019-04-23T01:31:32.948Z,42.94
2019-04-23T01:32:15.537Z,43.14
2019-04-23T01:32:53.407Z,42.94
2019-04-23T01:33:44.529Z,43.23
2019-04-23T01:34:19.385Z,43.4
2019-04-23T01:35:06.422Z,43.21
2019-04-23T01:35:39.433Z,44.17
2019-04-23T01:36:32.357Z,43.69
2019-04-23T01:37:00.466Z,44.17
2019-04-23T01:37:46.122Z,43.98
2019-04-23T01:38:33.409Z,43.79
2019-04-23T01:39:10.913Z,44.07
2019-04-23T01:39:52.303Z,43.69
2019-04-23T01:40:36.307Z,43.79
2019-04-23T01:41:12.732Z,44.17
2019-04-23T01:41:55.359Z,43.98
2019-04-23T01:42:40.327Z,44.17
2019-04-23T01:43:15.910Z,43.88
2019-04-23T01:43:50.123Z,44.07
2019-04-23T01:46:12.644Z,43.88
2019-04-23T01:47:30.213Z,44.07
2019-04-23T01:48:04.483Z,43.98
2019-04-23T01:48:51.460Z,43.88
2019-04-23T01:49:35.784Z,44.07
2019-04-23T01:50:18.524Z,44.17
2019-04-23T01:50:52.713Z,44.93
2019-04-23T01:51:39.528Z,44.26
2019-04-23T01:52:14.309Z,44.36
2019-04-23T01:52:58.906Z,43.98
2019-04-23T01:53:38.460Z,44.17
2019-04-23T01:54:17.352Z,43.98
2019-04-23T01:55:00.670Z,44.07
2019-04-23T01:55:41.989Z,44.17
2019-04-23T01:57:01.067Z,43.88
2019-04-23T01:57:46.448Z,44.17
2019-04-23T01:59:04.900Z,44.26
2019-04-23T01:59:45.663Z,44.17
2019-04-23T02:00:28.530Z,44.07
2019-04-23T02:01:06.385Z,43.98
2019-04-23T02:02:34.239Z,44.93
2019-04-23T02:03:07.219Z,44.93
2019-04-23T02:03:54.173Z,44.65
2019-04-23T02:04:28.018Z,44.93
2019-04-23T02:05:15.514Z,44.17
2019-04-23T02:05:55.119Z,44.26
2019-04-23T02:06:31.194Z,43.98
2019-04-23T02:07:10.860Z,44.65
2019-04-23T02:07:56.191Z,44.38
2019-04-23T02:08:39.458Z,44.29
2019-04-23T02:09:16.292Z,44.38
2019-04-23T02:10:06.595Z,43.98
2019-04-23T02:10:44.136Z,44.76
2019-04-23T02:11:16.239Z,44.86
2019-04-23T02:12:03.986Z,44.86
2019-04-23T02:12:47.500Z,44.09
2019-04-23T02:13:22.116Z,44.09
2019-04-23T02:14:01.312Z,44.07
2019-04-23T02:14:41.393Z,44.07
2019-04-23T02:15:29.564Z,44.26
2019-04-23T02:16:02.594Z,45.12
2019-04-23T02:16:59.882Z,44.74
2019-04-23T02:17:28.284Z,44.74
2019-04-23T02:18:11.318Z,45.03
2019-04-23T02:18:47.318Z,45.31
2019-04-23T02:19:28.862Z,45.41
2019-04-23T02:20:15.733Z,45.03
2019-04-23T02:20:52.442Z,44.65
2019-04-23T02:21:33.285Z,44.93
2019-04-23T02:22:12.358Z,45.41
2019-04-23T02:24:11.832Z,44.65
2019-04-23T02:25:01.332Z,44.84
2019-04-23T02:26:19.840Z,44.45
2019-04-23T02:26:55.342Z,45.31
2019-04-23T02:27:41.888Z,45.31
2019-04-23T02:28:25.227Z,44.93
2019-04-23T02:29:07.439Z,44.74
2019-04-23T02:32:01.184Z,45.31
2019-04-23T02:32:45.234Z,45.22
2019-04-23T02:34:11.868Z,45.43
2019-04-23T02:35:32.276Z,44.84
2019-04-23T02:36:44.842Z,44.76
2019-04-23T02:37:32.286Z,44.74
2019-04-23T02:38:09.422Z,44.95
2019-04-23T02:39:28.234Z,45.51
2019-04-23T02:40:25.908Z,45.24
2019-04-23T02:40:53.186Z,45.43
2019-04-23T02:42:18.458Z,44.86
2019-04-23T02:43:00.383Z,45.62
2019-04-23T02:44:16.450Z,45.24
2019-04-23T02:44:44.690Z,45.34
2019-04-23T02:46:05.324Z,45.72
2019-04-23T02:46:58.570Z,45.53
2019-04-23T02:47:31.628Z,45.43
2019-04-23T02:48:23.798Z,45.24
2019-04-23T02:50:52.947Z,45.62
2019-04-23T02:51:34.460Z,45.62
2019-04-23T02:52:20.644Z,45.72
2019-04-23T02:54:03.784Z,45.55
2019-04-23T02:54:34.640Z,45.45
2019-04-23T02:55:48.343Z,45.26
2019-04-23T02:56:37.231Z,45.45
2019-04-23T02:57:05.409Z,45.36
2019-04-23T02:57:49.867Z,45.55
2019-04-23T02:59:27.891Z,45.36
2019-04-23T03:00:05.277Z,45.65
2019-04-23T03:00:37.803Z,45.36
2019-04-23T03:01:53.561Z,45.29
2019-04-23T03:02:47.474Z,45.57
2019-04-23T03:03:13.272Z,44.9
2019-04-23T03:04:39.756Z,45.19
2019-04-23T03:05:19.639Z,45.19
2019-04-23T03:06:37.848Z,45
2019-04-23T03:07:22.023Z,44.9
2019-04-23T03:07:59.255Z,44.52
2019-04-23T03:08:37.482Z,44.33
2019-04-23T03:09:35.861Z,44.04
2019-04-23T03:10:07.202Z,44.81
2019-04-23T03:11:30.413Z,44.9
2019-04-23T03:13:19.040Z,44.81
2019-04-23T03:14:58.083Z,44.23
2019-04-23T03:16:37.527Z,44.62
2019-04-23T03:16:56.150Z,45
2019-04-23T03:17:47.022Z,44.9
2019-04-23T03:18:31.343Z,45
2019-04-23T03:19:37.367Z,45
2019-04-23T03:22:44.140Z,45
2019-04-23T03:23:49.426Z,45.57
2019-04-23T03:24:36.075Z,45.29
2019-04-23T03:25:09.855Z,45.09
2019-04-23T03:25:44.533Z,45.57
2019-04-23T03:26:36.596Z,45.19
2019-04-23T03:27:45.807Z,45.48
2019-04-23T03:28:42.595Z,45.38
2019-04-23T03:29:19.282Z,45.48
2019-04-23T03:30:57.803Z,45.67
2019-04-23T03:33:19.660Z,44.81
2019-04-23T03:33:52.194Z,45
2019-04-23T03:35:07.824Z,45.29
2019-04-23T03:37:08.433Z,45.57
2019-04-23T03:37:31.978Z,45.29
2019-04-23T03:39:28.137Z,45
2019-04-23T03:40:07.261Z,45.38
2019-04-23T03:40:45.349Z,45.57
2019-04-23T03:41:27.547Z,46.25
2019-04-23T03:43:06.195Z,45.67
2019-04-23T03:43:40.948Z,46.05
2019-04-23T03:44:11.718Z,46.34
2019-04-23T03:45:07.281Z,45.67
2019-04-23T03:46:23.041Z,46.05
2019-04-23T03:47:01.467Z,46.41
2019-04-23T03:47:37.054Z,46.22
2019-04-23T03:48:56.467Z,46.41
2019-04-23T03:50:04.210Z,46.7
2019-04-23T03:50:28.077Z,46.89
2019-04-23T03:51:01.037Z,47.08
2019-04-23T03:51:50.993Z,47.37
2019-04-23T03:53:13.701Z,47.85
2019-04-23T03:57:52.002Z,46.96
2019-04-23T03:58:27.557Z,47.44
2019-04-23T03:59:10.432Z,47.85
2019-04-23T03:59:54.536Z,47.08
2019-04-23T04:01:11.602Z,47.75
2019-04-23T04:02:39.630Z,47.56
2019-04-23T04:03:14.552Z,47.56
2019-04-23T04:04:32.652Z,47.56
2019-04-23T04:05:30.601Z,46.98
2019-04-23T04:06:05.058Z,46.98
2019-04-23T04:06:58.803Z,47.37
2019-04-23T04:08:13.089Z,47.37
2019-04-23T04:19:46.555Z,48.39
2019-04-23T04:21:13.634Z,48.39
2019-04-23T04:21:58.191Z,49.07
2019-04-23T04:22:36.886Z,48.3
2019-04-23T04:23:21.933Z,48.59
2019-04-23T04:24:01.035Z,48.21
2019-04-23T04:24:34.263Z,47.92
2019-04-23T04:25:14.141Z,47.63
2019-04-23T04:26:43.624Z,48.49
2019-04-23T04:27:12.053Z,47.82
2019-04-23T04:28:00.724Z,47.92
2019-04-23T04:28:50.809Z,48.3
2019-04-23T04:29:25.481Z,48.59
2019-04-23T05:07:39.635Z,42.77
2019-04-23T05:08:27.926Z,42.96
2019-04-23T05:09:08.648Z,42.86
2019-04-23T05:11:07.121Z,42.6
2019-04-23T05:12:27.233Z,42.6
2019-04-23T05:13:21.112Z,42.47
2019-04-23T05:13:59.514Z,42.98
2019-04-23T05:15:06.654Z,42.79
2019-04-23T05:15:44.131Z,42.69
2019-04-23T05:16:25.592Z,42.69
2019-04-23T05:17:31.868Z,42.69
2019-04-23T05:18:27.008Z,42.5
2019-04-23T05:19:21.635Z,42.98
2019-04-23T05:19:56.081Z,42.5
2019-04-23T05:20:36.445Z,42.21
2019-04-23T05:21:11.786Z,42.4
2019-04-23T05:21:58.523Z,42.11
2019-04-23T05:22:38.268Z,42.5
2019-04-23T05:23:19.112Z,42.11
2019-04-23T05:23:52.237Z,42.3
2019-04-23T05:24:44.766Z,42.4
2019-04-23T05:25:10.772Z,42.6
2019-04-23T05:25:49.305Z,42.4
2019-04-23T05:26:26.893Z,42.3
2019-04-23T05:27:08.833Z,42.6
2019-04-23T05:28:02.550Z,42.6
2019-04-23T05:28:38.234Z,42.69
2019-04-23T05:29:10.877Z,42.5
2019-04-23T05:30:00.554Z,42.57
2019-04-23T05:31:18.507Z,43.27
2019-04-23T05:31:57.531Z,43.24
2019-04-23T05:32:40.928Z,43.05
2019-04-23T05:34:02.415Z,43.63
2019-04-23T05:34:39.686Z,43.82
2019-04-23T05:35:31.793Z,43.82
2019-04-23T05:36:45.269Z,44.2
2019-04-23T05:37:30.850Z,44.49
2019-04-23T05:38:50.166Z,44.66
2019-04-23T05:39:28.898Z,45.04
2019-04-23T05:40:14.011Z,44.56
2019-04-23T05:41:28.183Z,44.66
2019-04-23T05:42:10.404Z,45.43
2019-04-23T05:43:32.130Z,44.85
2019-04-23T05:45:00.432Z,45.52
2019-04-23T05:45:39.747Z,45.43
2019-04-23T05:47:10.891Z,45.23
2019-04-23T05:47:50.395Z,44.78
2019-04-23T05:48:23.195Z,44.09
2019-04-23T05:49:10.781Z,44.11
2019-04-23T05:50:33.721Z,44.3
2019-04-23T05:51:10.689Z,43.91
2019-04-23T05:51:54.877Z,44.2
2019-04-23T05:52:28.974Z,44.2
2019-04-23T05:53:11.220Z,43.65
2019-04-23T05:53:50.779Z,43.74
2019-04-23T05:54:34.661Z,43.46
2019-04-23T05:55:13.074Z,43.07
2019-04-23T05:56:01.399Z,43.17
2019-04-23T05:56:38.106Z,43.29
2019-04-23T05:57:13.400Z,42.71
2019-04-23T05:58:00.384Z,42.61
2019-04-23T05:59:15.866Z,41.39
2019-04-23T06:00:01.948Z,41.29
2019-04-23T06:01:41.199Z,41.2
2019-04-23T06:02:47.943Z,40.83
2019-04-23T06:03:21.100Z,40.45
2019-04-23T06:04:10.328Z,40.45
2019-04-23T06:04:41.724Z,40.35
2019-04-23T06:05:24.542Z,40.25
2019-04-23T06:06:10.110Z,40.16
2019-04-23T06:06:53.879Z,40.25
2019-04-23T06:08:11.287Z,39.99
2019-04-23T06:08:52.642Z,39.31
2019-04-23T06:09:45.936Z,39.31
2019-04-23T06:10:10.794Z,38.84
2019-04-23T06:10:55.369Z,38.66
2019-04-23T06:11:44.893Z,38.76
2019-04-23T06:12:13.188Z,37.79
2019-04-23T06:12:57.288Z,37.7
2019-04-23T06:13:42.824Z,37.6
2019-04-23T06:14:18.556Z,37.24
2019-04-23T06:14:57.178Z,37.22
2019-04-23T06:15:36.705Z,37.24
2019-04-23T06:16:21.924Z,36.85
2019-04-23T06:17:03.058Z,36.66
2019-04-23T06:17:46.041Z,36.76
2019-04-23T06:18:30.250Z,37.14
2019-04-23T06:19:12.503Z,36.37
2019-04-23T06:19:49.420Z,36.18
2019-04-23T06:20:34.763Z,36
2019-04-23T06:22:34.408Z,35.99
2019-04-23T06:23:22.727Z,36.08
2019-04-23T06:23:57.763Z,35.99
2019-04-23T06:24:32.494Z,36.27
2019-04-23T06:25:30.025Z,36.1
2019-04-23T06:26:07.743Z,35.24
2019-04-23T06:26:51.421Z,35.52
2019-04-23T06:27:17.961Z,35.33
2019-04-23T06:28:07.813Z,35.33
2019-04-23T06:28:38.597Z,34.58
2019-04-23T06:29:25.017Z,34.48
2019-04-23T06:30:00.435Z,34.67
2019-04-23T06:31:30.666Z,34.3
2019-04-23T06:32:05.805Z,34.01
2019-04-23T06:32:51.061Z,34.11
2019-04-23T06:33:32.035Z,33.63
2019-04-23T06:34:16.384Z,33.92
2019-04-23T06:34:51.059Z,34.09
2019-04-23T06:35:35.756Z,33.98
2019-04-23T06:36:18.477Z,35.02
2019-04-23T06:36:56.663Z,36.07
2019-04-23T06:38:02.967Z,37.02
2019-04-23T06:39:23.178Z,37.22
2019-04-23T06:39:41.118Z,37.32
2019-04-23T06:40:21.476Z,37.02
2019-04-23T06:41:00.575Z,37.01
2019-04-23T06:41:43.043Z,37.85
2019-04-23T06:42:28.951Z,38.26
2019-04-23T06:43:04.538Z,37.87
2019-04-23T06:43:49.521Z,38.35
2019-04-23T06:44:30.619Z,37.47
2019-04-23T06:45:14.217Z,38.14
2019-04-23T06:45:49.015Z,38.62
2019-04-23T06:46:43.089Z,38.53
2019-04-23T06:47:11.499Z,39.29
2019-04-23T06:48:01.453Z,39.39
2019-04-23T06:48:40.321Z,39.11
2019-04-23T06:49:16.872Z,39.29
2019-04-23T06:50:48.676Z,39.56
2019-04-23T06:51:25.658Z,39.85
2019-04-23T06:52:14.425Z,39.18
2019-04-23T06:52:45.350Z,39.18
2019-04-23T06:53:28.461Z,39.37
2019-04-23T06:54:17.854Z,39.35
2019-04-23T06:55:00.770Z,40.02
2019-04-23T06:55:35.426Z,40.31
2019-04-23T06:56:17.514Z,40.33
2019-04-23T06:57:31.595Z,40.05
2019-04-23T06:58:25.199Z,40.33
2019-04-23T06:59:05.509Z,40.23
2019-04-23T06:59:41.063Z,39.47
2019-04-23T07:00:20.808Z,39.47
2019-04-23T07:01:04.724Z,38.41
2019-04-23T07:01:52.670Z,38.89
2019-04-23T07:03:14.567Z,39.85
2019-04-23T07:03:49.864Z,40.52
2019-04-23T07:04:34.165Z,39.85
2019-04-23T07:05:15.592Z,39.93
2019-04-23T07:06:02.846Z,40.02
2019-04-23T07:06:34.560Z,40.12
2019-04-23T07:07:56.203Z,40.52
2019-04-23T07:08:42.818Z,40.5
2019-04-23T07:09:12.977Z,41
2019-04-23T07:09:57.704Z,40.43
2019-04-23T07:10:38.488Z,41.2
2019-04-23T07:11:26.864Z,41.2
2019-04-23T07:11:53.845Z,40.52
2019-04-23T07:12:40.987Z,40.33
2019-04-23T07:13:20.365Z,40.16
2019-04-23T07:14:48.840Z,39.2
2019-04-23T07:15:37.658Z,39.78
2019-04-23T07:16:02.804Z,39.87
2019-04-23T07:16:46.129Z,39.58
2019-04-23T07:17:24.200Z,39.22
2019-04-23T07:18:07.245Z,38.54
2019-04-23T07:19:16.189Z,38.45
2019-04-23T07:20:19.733Z,38.35
2019-04-23T07:21:06.334Z,38.54
2019-04-23T07:21:33.252Z,38.37
2019-04-23T07:22:21.467Z,37.6
2019-04-23T07:23:04.669Z,38.18
2019-04-23T07:23:58.534Z,37.99
2019-04-23T07:24:21.253Z,37.79
2019-04-23T07:25:07.450Z,38.35
2019-04-23T07:25:46.625Z,38.84
2019-04-23T07:26:38.560Z,38.54
2019-04-23T07:27:10.221Z,38.84
2019-04-23T07:27:47.196Z,38.74
2019-04-23T07:28:36.090Z,38.35
2019-04-23T07:29:15.190Z,39.03
2019-04-23T07:29:56.414Z,39.12
2019-04-23T07:30:32.714Z,38.56
2019-04-23T07:31:20.091Z,38.56
2019-04-23T07:32:35.602Z,38.37
2019-04-23T07:33:18.217Z,38.47
2019-04-23T07:34:00.917Z,38.2
2019-04-23T07:34:37.280Z,37.81
2019-04-23T07:35:15.601Z,38.29
2019-04-23T07:35:59.727Z,37.91
2019-04-23T07:36:40.427Z,37.91
2019-04-23T07:37:22.074Z,37.79
2019-04-23T07:38:12.645Z,37.51
2019-04-23T07:38:54.487Z,38.37
2019-04-23T07:39:26.841Z,38.18
2019-04-23T07:40:46.433Z,38.37
2019-04-23T07:42:16.563Z,38.39
2019-04-23T07:42:49.743Z,37.52
2019-04-23T07:43:37.267Z,37.62
2019-04-23T07:44:20.193Z,37.34
2019-04-23T07:44:56.282Z,37.62
2019-04-23T07:45:34.729Z,37.81
2019-04-23T07:46:23.546Z,37.62
2019-04-23T07:47:11.108Z,37.91
2019-04-23T07:47:29.690Z,38.2
2019-04-23T07:55:00.437Z,38.84
2019-04-23T07:55:47.991Z,38.54
2019-04-23T07:56:21.025Z,39.03
2019-04-23T07:57:08.593Z,39.49
2019-04-23T07:57:39.825Z,40.16
2019-04-23T07:58:23.216Z,40.18
2019-04-23T07:59:03.669Z,40.47
2019-04-23T07:59:48.410Z,40.11
2019-04-23T08:00:34.277Z,39.62
2019-04-23T08:01:08.080Z,39.33
2019-04-23T08:01:48.754Z,38.37
2019-04-23T08:02:42.147Z,38.18
2019-04-23T08:03:28.790Z,38.76
2019-04-23T08:04:16.250Z,38.66
2019-04-23T08:04:53.968Z,38.16
2019-04-23T08:05:26.280Z,39.01
2019-04-23T08:06:05.655Z,40.06
2019-04-23T08:06:51.870Z,40.55
2019-04-23T08:07:35.030Z,41.39
2019-04-23T08:08:11.389Z,41.2
2019-04-23T08:09:00.678Z,41.39
2019-04-23T08:13:15.389Z,41.39
2019-04-23T08:14:07.772Z,41.77
2019-04-23T08:14:40.236Z,41.87
2019-04-23T08:15:14.389Z,42.56
2019-04-23T08:26:26.156Z,42.61
2019-04-23T08:26:58.938Z,42.81
2019-04-23T08:27:55.315Z,42.61
2019-04-23T08:28:33.864Z,42.71
2019-04-23T08:29:35.750Z,42.23
2019-04-23T08:30:15.069Z,42.52
2019-04-23T08:31:07.408Z,42.43
2019-04-23T08:31:49.880Z,42.83
2019-04-23T08:32:18.545Z,42.54
2019-04-23T08:33:10.749Z,42.25
2019-04-23T08:33:56.306Z,41.77
2019-04-23T08:34:35.643Z,41.77
2019-04-23T08:35:26.524Z,41.87
2019-04-23T08:35:56.940Z,42.52
2019-04-23T08:36:40.591Z,42.52
2019-04-23T08:38:18.404Z,42.9
2019-04-23T08:38:42.440Z,43.1
2019-04-23T08:39:24.429Z,42.61
2019-04-23T08:39:59.683Z,43.1
2019-04-23T08:40:55.439Z,43.38
2019-04-23T08:43:07.066Z,43.4
2019-04-23T08:43:46.362Z,43.21
2019-04-23T08:44:15.184Z,43.5
2019-04-23T08:45:02.890Z,42.94
2019-04-23T08:45:29.509Z,41.6
2019-04-23T08:46:13.009Z,41.24
2019-04-23T08:47:31.475Z,40.66
2019-04-23T08:48:20.361Z,40.28
2019-04-23T08:49:02.790Z,40.08
2019-04-23T08:49:40.206Z,40.08
2019-04-23T08:50:21.396Z,40.08
2019-04-23T08:50:57.077Z,40.18
2019-04-23T08:51:59.943Z,40.28
2019-04-23T08:52:16.520Z,40.95
2019-04-23T08:53:16.450Z,40.95
2019-04-23T08:53:47.393Z,40.47
2019-04-23T08:54:42.698Z,40.3
2019-04-23T08:55:08.209Z,39.62
2019-04-23T08:56:40.485Z,39.43
2019-04-23T08:57:14.140Z,39.62
2019-04-23T08:57:46.585Z,39.72
2019-04-23T08:59:24.196Z,39.24
2019-04-23T08:59:55.496Z,39.41
2019-04-23T09:00:45.372Z,40.08
2019-04-23T09:01:14.401Z,40.2
2019-04-23T09:02:14.578Z,39.53
2019-04-23T09:02:39.027Z,39.14
2019-04-23T09:04:00.127Z,38.95
2019-04-23T09:04:53.604Z,39.06
2019-04-23T09:06:21.362Z,38.1
2019-04-23T09:06:52.661Z,38.56
2019-04-23T09:08:32.260Z,39.61
2019-04-23T09:08:56.372Z,40.28
2019-04-23T09:09:50.439Z,40.37
2019-04-23T09:10:24.652Z,40.11
2019-04-23T09:11:45.603Z,39.62
2019-04-23T09:12:28.171Z,40.01
2019-04-23T09:13:32.993Z,39.64
2019-04-23T09:14:31.331Z,38.49
2019-04-23T09:15:15.201Z,38.79
2019-04-23T09:15:54.320Z,38.79
2019-04-23T09:16:34.161Z,37.56
2019-04-23T09:17:15.281Z,37.27
2019-04-23T09:18:36.699Z,36.91
2019-04-23T09:19:21.273Z,36.04
2019-04-23T09:20:35.458Z,35.58
2019-04-23T09:22:14.028Z,36.04
2019-04-23T09:22:41.811Z,36.04
2019-04-23T09:23:34.266Z,36.23
2019-04-23T09:24:09.014Z,36.25
2019-04-23T09:24:55.284Z,36.06
2019-04-23T09:25:34.413Z,35.67
2019-04-23T09:26:06.042Z,35.67
2019-04-23T09:26:58.103Z,35
2019-04-23T09:28:25.377Z,35.19
2019-04-23T09:28:56.162Z,35.17
2019-04-23T09:29:45.539Z,35.65
2019-04-23T09:30:18.491Z,35.85
2019-04-23T09:31:02.657Z,36.04
2019-04-23T09:32:07.176Z,36.21
2019-04-23T09:32:24.690Z,36.11
2019-04-23T09:33:13.477Z,36.23
2019-04-23T09:34:33.528Z,37.19
2019-04-23T09:35:14.130Z,36.23
2019-04-23T09:35:52.305Z,36.13
2019-04-23T09:36:40.328Z,36.23
2019-04-23T09:37:18.464Z,36.91
2019-04-23T09:38:37.432Z,36.04
2019-04-23T09:39:20.208Z,35.65
2019-04-23T09:40:08.659Z,35.46
2019-04-23T09:40:54.210Z,35.65
2019-04-23T09:42:08.220Z,36.33
2019-04-23T09:43:25.177Z,36.81
2019-04-23T09:45:33.536Z,36.91
2019-04-23T09:46:17.275Z,36.81
2019-04-23T09:47:00.206Z,36.15
2019-04-23T09:47:36.924Z,35.96
2019-04-23T09:48:08.300Z,35.96
2019-04-23T09:49:05.375Z,35.3
2019-04-23T09:50:19.969Z,35.86
2019-04-23T09:51:00.828Z,36.04
2019-04-23T09:51:43.834Z,36.23
2019-04-23T09:52:26.780Z,36.61
2019-04-23T09:53:16.892Z,37.1
2019-04-23T09:53:39.766Z,36.81
2019-04-23T09:54:32.026Z,37.01
2019-04-23T09:55:13.455Z,37.1
2019-04-23T09:55:59.538Z,37.95
2019-04-23T09:56:35.482Z,38.06
2019-04-23T09:57:10.166Z,37.68
2019-04-23T09:58:07.653Z,37.39
2019-04-23T09:58:33.984Z,37.1
2019-04-23T09:59:21.890Z,36.71
2019-04-23T09:59:56.867Z,36.81
2019-04-23T10:00:40.508Z,36.61
2019-04-23T10:01:21.528Z,36.71
2019-04-23T10:01:53.940Z,37.21
2019-04-23T10:02:33.715Z,36.73
2019-04-23T10:03:15.981Z,36.63
2019-04-23T10:03:56.736Z,37.02
2019-04-23T10:04:37.834Z,36.73
2019-04-23T10:05:17.589Z,36.36
2019-04-23T10:05:53.266Z,35.5
2019-04-23T10:06:30.610Z,35.4
2019-04-23T10:07:20.228Z,35.67
2019-04-23T10:07:54.171Z,36.25
2019-04-23T10:08:34.746Z,36.63
2019-04-23T10:09:10.101Z,36.63
2019-04-23T10:09:51.710Z,36.52
2019-04-23T10:10:32.448Z,37.01
2019-04-23T10:11:13.752Z,37.39
2019-04-23T10:11:53.354Z,37.27
2019-04-23T10:12:35.605Z,37.76
2019-04-23T10:13:15.834Z,37.66
2019-04-23T10:13:56.534Z,38.24
2019-04-23T10:14:36.703Z,38.81
2019-04-23T10:15:24.122Z,38.53
2019-04-23T10:16:00.057Z,38.24
2019-04-23T10:16:41.957Z,38.24
2019-04-23T10:17:24.311Z,38.91
2019-04-23T10:18:04.639Z,38.83
2019-04-23T10:18:46.808Z,38.45
2019-04-23T10:19:28.645Z,37.68
2019-04-23T10:20:08.662Z,37.39
2019-04-23T10:20:50.221Z,37.29
2019-04-23T10:21:31.066Z,37.39
2019-04-23T10:22:11.430Z,37.29
2019-04-23T10:22:52.569Z,37.01
2019-04-23T10:23:33.439Z,37.29
2019-04-23T10:24:15.051Z,37.21
2019-04-23T10:24:55.201Z,36.93
2019-04-23T10:25:36.035Z,36.83
2019-04-23T10:26:16.408Z,36.75
2019-04-23T10:26:55.994Z,36.17
2019-04-23T10:27:36.855Z,35.8
2019-04-23T10:28:18.693Z,35.52
2019-04-23T10:28:58.159Z,35.32
2019-04-23T11:07:30.394Z,38.16
2019-04-23T11:08:09.828Z,38.26
2019-04-23T11:08:47.563Z,38.37
2019-04-23T11:09:49.429Z,37.79
2019-04-23T11:10:15.467Z,37.52
2019-04-23T11:10:54.548Z,36.67
2019-04-23T11:11:44.424Z,36.09
2019-04-23T11:12:31.798Z,35.9
2019-04-23T11:12:58.423Z,35.8
2019-04-23T11:13:44.746Z,36.07
2019-04-23T11:14:30.533Z,36.94
2019-04-23T11:15:18.095Z,36.38
2019-04-23T11:16:49.045Z,35.8
2019-04-23T11:17:14.314Z,36.29
2019-04-23T11:17:47.427Z,36.67
2019-04-23T11:18:44.858Z,36.87
2019-04-23T11:19:31.751Z,36.07
2019-04-23T11:20:03.690Z,36.17
2019-04-23T11:20:40.996Z,36.94
2019-04-23T11:22:15.485Z,36.75
2019-04-23T11:22:53.160Z,36.85
2019-04-23T11:23:22.235Z,36.77
2019-04-23T11:24:08.834Z,35.52
2019-04-23T11:24:48.101Z,35.61
2019-04-23T11:25:31.009Z,35.42
2019-04-23T11:26:05.279Z,35.61
2019-04-23T11:26:49.083Z,35.34
2019-04-23T11:28:13.124Z,35.53
2019-04-23T11:28:49.754Z,35.63
2019-04-23T11:29:38.431Z,35.34
2019-04-23T11:30:25.137Z,35.05
2019-04-23T11:31:00.766Z,35.34
2019-04-23T11:32:36.314Z,34.95
2019-04-23T11:33:06.278Z,34.76
2019-04-23T11:33:37.769Z,34.86
2019-04-23T11:34:33.461Z,35.05
2019-04-23T11:35:10.299Z,35.52
2019-04-23T11:35:46.982Z,35.42
2019-04-23T11:36:59.386Z,35.61
2019-04-23T11:39:03.924Z,36.09
2019-04-23T11:40:25.061Z,36.29
2019-04-23T11:41:08.868Z,36.11
2019-04-23T11:42:37.561Z,35.71
2019-04-23T11:43:12.712Z,35.8
2019-04-23T11:44:11.267Z,35.61
2019-04-23T11:44:45.557Z,36.17
2019-04-23T11:45:23.625Z,36.75
2019-04-23T11:46:03.174Z,36.17
2019-04-23T11:46:45.218Z,36.75
2019-04-23T11:47:30.332Z,37.13
2019-04-23T11:49:32.803Z,36.94
2019-04-23T11:50:06.441Z,36.67
2019-04-23T11:51:18.339Z,36.19
2019-04-23T11:52:48.175Z,35.92
2019-04-23T11:53:33.701Z,36.4
2019-04-23T11:54:08.716Z,35.24
2019-04-23T11:54:52.664Z,35.34
2019-04-23T11:56:22.023Z,35.26
2019-04-23T11:57:40.005Z,35.26
2019-04-23T11:58:18.623Z,34.58
2019-04-23T11:58:51.288Z,34.48
2019-04-23T11:59:43.336Z,34.58
2019-04-23T12:00:33.490Z,34.48
2019-04-23T12:01:08.125Z,34.68
2019-04-23T12:01:52.132Z,35.06
2019-04-23T12:02:32.321Z,35.06
2019-04-23T12:03:16.718Z,35.24
2019-04-23T12:04:11.272Z,35.24
2019-04-23T12:06:45.507Z,35.61
2019-04-23T12:07:29.382Z,36.38
2019-04-23T12:08:15.094Z,36.09
2019-04-23T12:10:21.877Z,35.52
2019-04-23T12:11:34.078Z,36.09
2019-04-23T12:12:16.707Z,36.09
2019-04-23T12:12:52.278Z,36
2019-04-23T12:14:28.951Z,36.38
2019-04-23T12:15:01.480Z,36.94
2019-04-23T12:15:45.953Z,36.87
2019-04-23T12:16:27.694Z,36.87
2019-04-23T12:17:12.451Z,36.96
2019-04-23T12:17:46.564Z,36.77
2019-04-23T12:18:31.596Z,36.77
2019-04-23T12:19:31.033Z,36.3
2019-04-23T12:20:39.547Z,36.4
2019-04-23T12:21:19.571Z,36.01
2019-04-23T12:22:00.451Z,35.45
2019-04-23T12:22:46.612Z,35.55
2019-04-23T12:23:31.384Z,34.97
2019-04-23T12:24:13.526Z,35.06
2019-04-23T12:26:19.057Z,34.56
2019-04-23T12:26:58.295Z,34.66
2019-04-23T12:28:20.315Z,35.61
2019-04-23T12:30:33.499Z,36.19
2019-04-23T12:31:06.746Z,36.48
2019-04-23T12:31:45.072Z,36.19
2019-04-23T12:33:10.298Z,36.09